Aviation Digital Data Service (ADDS)

Output produced by METARs form (0710 UTC 24 March 2019)
found at http://www.aviationweather.gov/metar/data/
 
KAWO 240656Z AUTO 00000KT 10SM CLR 06/04 A3021 RMK AO2 SLP234 T00610044
KBLI 240653Z AUTO 00000KT 10SM CLR 06/03 A3020 RMK AO2 SLP235 T00560028
KBLI 240532Z 2406/2506 00000KT P6SM SCT070 
     FM241200 VRB03KT P6SM FEW020 BKN150 
     FM241800 18005KT P6SM SCT040 BKN200 
     FM250300 18004KT P6SM BKN250
       
KPWT 240656Z AUTO 00000KT 10SM CLR 05/03 A3020 RMK AO2 SLP247 T00500033
KPWT 240532Z 2406/2506 00000KT P6SM BKN040 BKN070 
     FM241200 00000KT P6SM SCT008 BKN020 
     FM241800 20005KT P6SM BKN025 
     FM242100 18004KT P6SM SCT040 SCT200 
     FM250300 03004KT P6SM SCT250
       
KBVS 240655Z AUTO 00000KT 10SM SCT040 05/04 A3021 RMK A01
KCLS 240655Z AUTO 00000KT 10SM CLR 05/05 A3022 RMK AO2
KDEW 240653Z AUTO 00000KT 10SM CLR 01/M01 A3006 RMK AO2 SLP191 T00061006 $
KELN 240653Z AUTO 32012KT 10SM OVC090 09/02 A3009 RMK AO2 SLP190 T00890022
KEPH 240653Z AUTO 32008KT 10SM OVC110 10/02 A3005 RMK AO2 SLP178 T01000017
KPAE 240653Z AUTO 35005KT 10SM CLR 08/05 A3020 RMK AO2 SLP229 T00780050
KPAE 240532Z 2406/2506 34005KT P6SM SCT040 SCT070 
     FM241400 22004KT P6SM BKN030 BKN040 
     FM242100 23004KT P6SM SCT040 BKN150 
     FM242300 21007KT P6SM SCT250 
     FM250300 05004KT P6SM SCT250
       
KFHR 240653Z AUTO 00000KT 8SM CLR 04/03 A3021 RMK AO2 SLP232 T00440033
KHQM 240707Z AUTO 00000KT 2SM BR OVC002 06/06 A3022 RMK AO2 T00610061
KHQM 240532Z 2406/2506 28003KT 6SM BR FEW015 FEW070 
     FM241000 07004KT P6SM SCT015 BKN020 
     FM241300 10004KT 4SM BR BKN012 
     FM241900 09007KT P6SM SCT030 BKN100 
     FM242300 09007KT P6SM SCT250
       
KKLS 240656Z AUTO 00000KT 10SM SCT039 07/06 A3023 RMK AO2 SLP240 T00720056
KMWH 240652Z AUTO 36005KT 10SM BKN120 09/04 A3006 RMK AO2 SLP181 T00940044
KMWH 240520Z 2406/2506 27005KT P6SM VCSH OVC100 
     FM241100 29005KT P6SM -RA OVC060 
     FM242000 20006KT P6SM -RA OVC050 
     FM250100 13005KT P6SM BKN050
       
KOLM 240654Z AUTO 17003KT 10SM CLR 04/03 A3021 RMK AO2 SLP230 T00390028
KOLM 240532Z 2406/2506 VRB03KT P6SM SCT040 BKN070 
     FM240800 00000KT P6SM SCT015 BKN020 
     FM241200 22005KT 4SM BR SCT010 BKN020 
     FM241900 17004KT P6SM SCT015 BKN025 
     FM242100 18006KT P6SM SCT035 SCT200 
     FM242300 07003KT P6SM SCT250
       
KOMK 240653Z AUTO 00000KT 10SM FEW085 07/02 A3009 RMK AO2 SLP192 T00670022
KPSC 240653Z AUTO 18006KT 10SM SCT075 OVC090 12/04 A3006 RMK AO2 SLP179 T01220044
KPSC 240522Z 2406/2506 24004KT P6SM VCSH BKN050 
     FM240900 25010KT P6SM -SHRA OVC050 
     FM242100 23006KT P6SM VCSH OVC050 
     FM250100 VRB04KT P6SM SCT050
       
KCLM 240653Z AUTO 25009KT 10SM CLR 07/03 A3022 RMK AO2 SLP234 T00670033
KCLM 240532Z 2406/2506 26005KT P6SM SCT070 
     FM241800 VRB04KT P6SM SCT040 BKN100 
     FM250300 25004KT P6SM BKN250
       
K0S9 240655Z AUTO 00000KT 10SM CLR 05/04 A3020 RMK AO2
KPUW 240653Z AUTO 00000KT 10SM CLR 04/02 A3006 RMK AO2 SLP188 T00440022
KPUW 240520Z 2406/2506 30004KT P6SM FEW050 SCT100 BKN200 
     FM240900 28005KT P6SM VCSH OVC060 
     FM241200 27005KT 3SM -RA BR BKN006 OVC015 
     FM241900 25006KT 5SM -RA BR OVC015 
     FM250100 14005KT P6SM BKN030
       
KPLU 240655Z AUTO 00000KT 10SM OVC070 09/07 A3020 RMK AO2
KUIL 240701Z AUTO 07003KT 1/4SM FG VV002 05/05 A3022 RMK AO2 T00500050
KRNT 240653Z AUTO 31005KT 10SM CLR 09/05 A3020 RMK AO2 SLP232 T00940050
KRLD 240655Z AUTO 23005KT 10SM OVC085 14/04 A3006 RMK AO2 T01360036
KBFI 240653Z 00000KT 10SM CLR 10/03 A3021 RMK AO2 SLP228 T01000033
KBFI 240532Z 2406/2506 VRB03KT P6SM FEW050 SCT070 
     FM240900 17005KT P6SM FEW030 BKN100 
     FM241200 20004KT P6SM BKN030 BKN120 
     FM241800 20005KT P6SM BKN030 
     FM242100 25004KT P6SM SCT040 SCT200 
     FM250300 13003KT P6SM SCT250
       
KSEA 240653Z 35006KT 10SM SCT200 09/04 A3020 RMK AO2 SLP234 T00890039
KSEA 240532Z 2406/2512 35005KT P6SM FEW040 SCT070 
     FM240900 22005KT P6SM FEW030 BKN100 
     FM241200 20004KT P6SM BKN030 BKN100 
     FM241800 22005KT P6SM BKN030 
     FM242000 25004KT P6SM SCT030 SCT200 
     FM250300 05004KT P6SM SCT250
       
KSHN 240653Z AUTO 28004KT 10SM CLR 06/04 A3019 RMK AO2 SLP226 T00560039
KSFF 240653Z 00000KT 10SM CLR 06/03 A3006 RMK AO2 SLP183 T00560028
KSFF 240520Z 2406/2506 VRB02KT P6SM FEW070 BKN200 
     FM241500 20004KT P6SM VCSH BKN060 OVC100 
     FM241900 21005KT 6SM -RA BR BKN020 OVC030 
     FM250200 VRB03KT P6SM VCSH BKN025 OVC040
       
KGEG 240653Z 00000KT 10SM FEW120 SCT180 OVC190 06/02 A3005 RMK AO2 SLP182 T00610022
KGEG 240520Z 2406/2506 VRB03KT P6SM FEW070 BKN200 
     FM241500 20004KT P6SM VCSH BKN060 OVC100 
     FM241900 19007KT 6SM -RA BR BKN015 OVC025 
     FM250200 19006KT P6SM VCSH BKN020 OVC040
       
K1S5 240655Z AUTO 21005KT 10SM OVC075 10/06 A3008 RMK AO2 T01030055
KTIW 240653Z AUTO 00000KT 10SM CLR 07/04 A3020 RMK AO2 SLP228 T00720039
KVUO 240653Z AUTO 00000KT 10SM BKN043 BKN055 09/05 A3021 RMK AO2 SLP229 T00890050 $
KALW 240653Z AUTO 18009KT 10SM -RA BKN050 OVC070 09/06 A3008 RMK AO2 SLP189 P0001 T00890056
KALW 240522Z 2406/2506 19008KT P6SM -SHRA OVC050 
     FM241200 21008KT P6SM -SHRA SCT025 OVC040 
     FM242100 21010KT P6SM VCSH SCT035 BKN050 
     FM250200 18005KT P6SM SCT050
       
KEAT 240655Z AUTO 33008KT 10SM OVC110 10/01 A3008 RMK AO2 SLP188 T01000006
KEAT 240520Z 2406/2506 29005KT P6SM OVC110 
     FM240900 29005KT P6SM -RA OVC060 
     FM241100 30005KT P6SM -RA OVC050 
     FM242000 VRB04KT P6SM VCSH BKN070 OVC120 
     FM250000 VRB04KT P6SM BKN060
       
KS52 240655Z AUTO 00000KT 10SM SCT100 SCT120 03/00 A3011 RMK AO2 T00310004
KYKM 240653Z AUTO VRB03KT 10SM OVC080 12/01 A3009 RMK AO2 SLP192 T01170006
KYKM 240522Z 2406/2506 26006KT P6SM SCT070 OVC100 
     FM241100 29006KT P6SM -SHRA BKN050 OVC100 
     FM241800 VRB04KT P6SM BKN050 
     PROB30 2418/2422 P6SM -RA BKN050 
     FM242200 VRB04KT P6SM BKN100 
     FM250200 VRB03KT P6SM SKC